BWA457 TTPP-TAPA
Flight info
| Callsign | BWA457 |
|---|---|
| Flight time | 1h 1m |
| Altitude | 31000 |
| Route | POS UM402 ANU |
| Aircraft | B38M/M-SDE1FGHILORVWXY/HB1 |
Departure
| Time | 2026-04-26 12:49 |
|---|---|
| Airport | Piarco International Airport (TTPP) |
Arrival
| Time | 2026-04-26 13:50 |
|---|---|
| Airport | V. C. Bird International Airport (TAPA) |
| Time | Latitude | Longitude | Altitude | Speed | Heading |
|---|---|---|---|---|---|
| 2026-04-26 12:07 | 10.59945 | -61.33854 | 54 ft | 0 kts | 2° |
| 2026-04-26 12:32 | 10.59932 | -61.33855 | 48 ft | 2 kts | 2° |
| 2026-04-26 12:33 | 10.59915 | -61.33855 | 54 ft | 2 kts | 3° |
| 2026-04-26 12:33 | 10.59899 | -61.33856 | 50 ft | 2 kts | 3° |
| 2026-04-26 12:33 | 10.59882 | -61.33857 | 53 ft | 2 kts | 4° |
| 2026-04-26 12:33 | 10.59866 | -61.33857 | 54 ft | 2 kts | 351° |
| 2026-04-26 12:34 | 10.59850 | -61.33852 | 51 ft | 2 kts | 317° |
| 2026-04-26 12:34 | 10.59840 | -61.33839 | 48 ft | 2 kts | 298° |
| 2026-04-26 12:34 | 10.59836 | -61.33823 | 53 ft | 2 kts | 271° |
| 2026-04-26 12:34 | 10.59836 | -61.33812 | 51 ft | 0 kts | 269° |
| 2026-04-26 12:39 | 10.59836 | -61.33815 | 55 ft | 2 kts | 270° |
| 2026-04-26 12:39 | 10.59836 | -61.33846 | 55 ft | 7 kts | 270° |
| 2026-04-26 12:39 | 10.59836 | -61.33892 | 52 ft | 12 kts | 270° |
| 2026-04-26 12:40 | 10.59836 | -61.33972 | 49 ft | 6 kts | 270° |
| 2026-04-26 12:40 | 10.59836 | -61.34020 | 53 ft | 3 kts | 270° |
| 2026-04-26 12:40 | 10.59836 | -61.34056 | 53 ft | 8 kts | 270° |
| 2026-04-26 12:40 | 10.59833 | -61.34132 | 48 ft | 14 kts | 257° |
| 2026-04-26 12:41 | 10.59760 | -61.34175 | 46 ft | 14 kts | 185° |
| 2026-04-26 12:41 | 10.59706 | -61.34256 | 50 ft | 18 kts | 271° |
| 2026-04-26 12:41 | 10.59707 | -61.34355 | 49 ft | 15 kts | 270° |
| 2026-04-26 12:41 | 10.59705 | -61.34476 | 48 ft | 19 kts | 261° |
| 2026-04-26 12:42 | 10.59616 | -61.34526 | 48 ft | 17 kts | 182° |
| 2026-04-26 12:42 | 10.59490 | -61.34526 | 48 ft | 17 kts | 180° |
| 2026-04-26 12:42 | 10.59423 | -61.34549 | 48 ft | 14 kts | 230° |
| 2026-04-26 12:42 | 10.59408 | -61.34652 | 47 ft | 17 kts | 264° |
| 2026-04-26 12:43 | 10.59376 | -61.34782 | 46 ft | 21 kts | 255° |
| 2026-04-26 12:43 | 10.59351 | -61.34916 | 45 ft | 20 kts | 268° |
| 2026-04-26 12:43 | 10.59351 | -61.35062 | 43 ft | 14 kts | 270° |
| 2026-04-26 12:43 | 10.59362 | -61.35167 | 42 ft | 16 kts | 300° |
| 2026-04-26 12:44 | 10.59417 | -61.35193 | 42 ft | 0 kts | 358° |
| 2026-04-26 12:45 | 10.59418 | -61.35193 | 42 ft | 1 kts | 358° |
| 2026-04-26 12:45 | 10.59436 | -61.35193 | 42 ft | 5 kts | 1° |
| 2026-04-26 12:45 | 10.59490 | -61.35174 | 42 ft | 11 kts | 31° |
| 2026-04-26 12:46 | 10.59534 | -61.35110 | 42 ft | 10 kts | 90° |
| 2026-04-26 12:46 | 10.59534 | -61.35105 | 42 ft | 0 kts | 90° |
| 2026-04-26 12:48 | 10.59533 | -61.35033 | 43 ft | 38 kts | 90° |
| 2026-04-26 12:48 | 10.59534 | -61.34504 | 48 ft | 110 kts | 89° |
| 2026-04-26 12:48 | 10.59536 | -61.33507 | 69 ft | 168 kts | 90° |
| 2026-04-26 12:48 | 10.59539 | -61.32222 | 587 ft | 191 kts | 90° |
| 2026-04-26 12:49 | 10.59536 | -61.30906 | 1697 ft | 181 kts | 91° |
| 2026-04-26 12:49 | 10.59572 | -61.29644 | 2667 ft | 174 kts | 89° |
| 2026-04-26 12:49 | 10.59624 | -61.28465 | 3557 ft | 164 kts | 89° |
| 2026-04-26 12:49 | 10.59680 | -61.27314 | 4379 ft | 158 kts | 89° |
| 2026-04-26 12:50 | 10.59743 | -61.26232 | 5097 ft | 154 kts | 89° |
| 2026-04-26 12:50 | 10.60017 | -61.25121 | 5233 ft | 178 kts | 64° |
| 2026-04-26 12:50 | 10.60934 | -61.24081 | 4249 ft | 221 kts | 37° |
| 2026-04-26 12:50 | 10.62451 | -61.23626 | 4045 ft | 245 kts | 3° |
| 2026-04-26 12:51 | 10.64183 | -61.23764 | 4812 ft | 256 kts | 357° |
| 2026-04-26 12:51 | 10.66017 | -61.23969 | 5448 ft | 273 kts | 356° |
| 2026-04-26 12:51 | 10.67968 | -61.24195 | 6066 ft | 290 kts | 356° |
| 2026-04-26 12:51 | 10.69988 | -61.24429 | 6955 ft | 291 kts | 356° |
| 2026-04-26 12:52 | 10.72011 | -61.24662 | 7860 ft | 295 kts | 356° |
| 2026-04-26 12:52 | 10.74049 | -61.24897 | 8660 ft | 299 kts | 356° |
| 2026-04-26 12:52 | 10.76127 | -61.25136 | 9518 ft | 303 kts | 356° |
| 2026-04-26 12:52 | 10.78247 | -61.25380 | 10282 ft | 309 kts | 355° |
| 2026-04-26 12:53 | 10.80428 | -61.25630 | 10830 ft | 323 kts | 355° |
| 2026-04-26 12:53 | 10.82724 | -61.25895 | 11219 ft | 341 kts | 355° |
| 2026-04-26 12:53 | 10.85151 | -61.26174 | 11569 ft | 358 kts | 355° |
| 2026-04-26 12:53 | 10.87686 | -61.26466 | 12008 ft | 371 kts | 355° |
| 2026-04-26 12:54 | 10.90230 | -61.26760 | 12765 ft | 372 kts | 355° |
| 2026-04-26 12:54 | 10.92816 | -61.27057 | 13459 ft | 377 kts | 355° |
| 2026-04-26 12:54 | 10.95437 | -61.27360 | 14108 ft | 381 kts | 355° |
| 2026-04-26 12:54 | 10.98083 | -61.27665 | 14715 ft | 384 kts | 355° |
| 2026-04-26 12:55 | 11.00759 | -61.27974 | 15338 ft | 388 kts | 354° |
| 2026-04-26 12:55 | 11.03417 | -61.28280 | 15919 ft | 391 kts | 354° |
| 2026-04-26 12:55 | 11.06136 | -61.28594 | 16492 ft | 395 kts | 354° |
| 2026-04-26 12:55 | 11.08877 | -61.28910 | 17066 ft | 398 kts | 354° |
| 2026-04-26 12:56 | 11.11647 | -61.29229 | 17625 ft | 402 kts | 354° |
| 2026-04-26 12:56 | 11.14438 | -61.29552 | 18169 ft | 405 kts | 353° |
| 2026-04-26 12:56 | 11.17250 | -61.29876 | 18640 ft | 409 kts | 353° |
| 2026-04-26 12:56 | 11.20088 | -61.30203 | 19113 ft | 411 kts | 353° |
| 2026-04-26 12:57 | 11.22945 | -61.30533 | 19569 ft | 414 kts | 353° |
| 2026-04-26 12:57 | 11.25816 | -61.30864 | 20026 ft | 416 kts | 353° |
| 2026-04-26 12:57 | 11.28669 | -61.31194 | 20466 ft | 419 kts | 353° |
| 2026-04-26 12:58 | 11.34505 | -61.31868 | 21342 ft | 424 kts | 353° |
| 2026-04-26 12:58 | 11.37452 | -61.32209 | 21777 ft | 427 kts | 353° |
| 2026-04-26 12:58 | 11.40416 | -61.32551 | 22178 ft | 429 kts | 353° |
| 2026-04-26 12:58 | 11.43397 | -61.32896 | 22597 ft | 432 kts | 353° |
| 2026-04-26 12:59 | 11.46360 | -61.33239 | 23006 ft | 434 kts | 353° |
| 2026-04-26 12:59 | 11.49374 | -61.33587 | 23398 ft | 437 kts | 353° |
| 2026-04-26 12:59 | 11.52411 | -61.33939 | 23742 ft | 440 kts | 353° |
| 2026-04-26 12:59 | 11.55471 | -61.34293 | 24076 ft | 442 kts | 353° |
| 2026-04-26 13:00 | 11.58533 | -61.34647 | 24397 ft | 444 kts | 353° |
| 2026-04-26 13:00 | 11.61606 | -61.35003 | 24722 ft | 446 kts | 353° |
| 2026-04-26 13:00 | 11.64662 | -61.35357 | 25038 ft | 448 kts | 353° |
| 2026-04-26 13:00 | 11.67772 | -61.35717 | 25357 ft | 450 kts | 353° |
| 2026-04-26 13:01 | 11.70893 | -61.36079 | 25676 ft | 452 kts | 353° |
| 2026-04-26 13:01 | 11.74035 | -61.36443 | 25983 ft | 454 kts | 353° |
| 2026-04-26 13:01 | 11.77184 | -61.36807 | 26281 ft | 457 kts | 353° |
| 2026-04-26 13:01 | 11.80352 | -61.37175 | 26601 ft | 459 kts | 353° |
| 2026-04-26 13:02 | 11.83536 | -61.37544 | 26901 ft | 461 kts | 353° |
| 2026-04-26 13:02 | 11.86692 | -61.37910 | 27209 ft | 463 kts | 353° |
| 2026-04-26 13:02 | 11.89905 | -61.38283 | 27512 ft | 465 kts | 352° |
| 2026-04-26 13:02 | 11.93141 | -61.38658 | 27808 ft | 467 kts | 352° |
| 2026-04-26 13:03 | 11.96379 | -61.39034 | 28098 ft | 469 kts | 352° |
| 2026-04-26 13:03 | 11.99625 | -61.39411 | 28386 ft | 471 kts | 352° |
| 2026-04-26 13:03 | 12.02849 | -61.39785 | 28675 ft | 472 kts | 352° |
| 2026-04-26 13:03 | 12.06130 | -61.40166 | 28957 ft | 474 kts | 352° |
| 2026-04-26 13:04 | 12.09418 | -61.40548 | 29235 ft | 476 kts | 352° |
| 2026-04-26 13:04 | 12.12719 | -61.40932 | 29513 ft | 478 kts | 352° |
| 2026-04-26 13:04 | 12.16033 | -61.41317 | 29778 ft | 480 kts | 352° |
| 2026-04-26 13:04 | 12.19325 | -61.41700 | 30032 ft | 482 kts | 352° |
| 2026-04-26 13:05 | 12.22666 | -61.42088 | 30258 ft | 483 kts | 352° |
| 2026-04-26 13:05 | 12.26016 | -61.42478 | 30486 ft | 485 kts | 352° |
| 2026-04-26 13:05 | 12.29371 | -61.42868 | 30701 ft | 486 kts | 352° |
| 2026-04-26 13:05 | 12.32733 | -61.43259 | 30913 ft | 488 kts | 352° |
| 2026-04-26 13:06 | 12.39494 | -61.44046 | 30993 ft | 488 kts | 352° |
| 2026-04-26 13:06 | 12.46244 | -61.44833 | 30996 ft | 488 kts | 352° |
| 2026-04-26 13:07 | 12.52997 | -61.45619 | 30996 ft | 488 kts | 352° |
| 2026-04-26 13:07 | 12.59714 | -61.46403 | 31001 ft | 488 kts | 352° |
| 2026-04-26 13:08 | 12.66466 | -61.47190 | 31008 ft | 488 kts | 352° |
| 2026-04-26 13:08 | 12.73218 | -61.47978 | 31009 ft | 488 kts | 352° |
| 2026-04-26 13:09 | 12.79932 | -61.48763 | 31011 ft | 488 kts | 352° |
| 2026-04-26 13:09 | 12.86692 | -61.49553 | 31016 ft | 488 kts | 352° |
| 2026-04-26 13:10 | 12.93457 | -61.50344 | 31020 ft | 488 kts | 352° |
| 2026-04-26 13:10 | 13.00217 | -61.51134 | 31015 ft | 489 kts | 352° |
| 2026-04-26 13:11 | 13.06930 | -61.51920 | 31016 ft | 489 kts | 352° |
| 2026-04-26 13:11 | 13.13698 | -61.52713 | 31014 ft | 489 kts | 352° |
| 2026-04-26 13:12 | 13.20477 | -61.53507 | 31009 ft | 489 kts | 352° |
| 2026-04-26 13:12 | 13.23819 | -61.54106 | 30997 ft | 486 kts | 341° |
| 2026-04-26 13:12 | 13.26999 | -61.55295 | 31006 ft | 487 kts | 338° |
| 2026-04-26 13:13 | 13.30268 | -61.56191 | 31006 ft | 488 kts | 352° |
| 2026-04-26 13:13 | 13.33620 | -61.56424 | 31009 ft | 489 kts | 355° |
| 2026-04-26 13:13 | 13.40424 | -61.56852 | 31012 ft | 490 kts | 355° |
| 2026-04-26 13:14 | 13.47237 | -61.57276 | 31011 ft | 490 kts | 355° |
| 2026-04-26 13:14 | 13.54050 | -61.57699 | 31010 ft | 490 kts | 355° |
| 2026-04-26 13:15 | 13.60819 | -61.58119 | 31011 ft | 490 kts | 355° |
| 2026-04-26 13:15 | 13.66529 | -61.58473 | 31010 ft | 490 kts | 355° |
| 2026-04-26 13:16 | 13.74450 | -61.58965 | 31012 ft | 490 kts | 355° |
| 2026-04-26 13:16 | 13.81264 | -61.59388 | 31012 ft | 490 kts | 355° |
| 2026-04-26 13:17 | 13.91440 | -61.60021 | 31012 ft | 490 kts | 355° |
| 2026-04-26 13:18 | 14.01638 | -61.60655 | 31016 ft | 489 kts | 355° |
| 2026-04-26 13:19 | 14.11844 | -61.61290 | 31014 ft | 489 kts | 355° |
| 2026-04-26 13:19 | 14.18638 | -61.61714 | 31015 ft | 488 kts | 355° |
| 2026-04-26 13:20 | 14.25394 | -61.62413 | 31016 ft | 488 kts | 353° |
| 2026-04-26 13:20 | 14.32113 | -61.63129 | 31016 ft | 488 kts | 353° |
| 2026-04-26 13:21 | 14.38874 | -61.63839 | 31020 ft | 488 kts | 353° |
| 2026-04-26 13:21 | 14.45638 | -61.64547 | 31020 ft | 488 kts | 353° |
| 2026-04-26 13:22 | 14.52412 | -61.65256 | 31019 ft | 489 kts | 353° |
| 2026-04-26 13:22 | 14.59134 | -61.65959 | 31021 ft | 489 kts | 353° |
| 2026-04-26 13:23 | 14.65901 | -61.66668 | 31018 ft | 489 kts | 353° |
| 2026-04-26 13:23 | 14.72677 | -61.67379 | 31016 ft | 489 kts | 353° |
| 2026-04-26 13:24 | 14.79450 | -61.68089 | 31020 ft | 489 kts | 353° |
| 2026-04-26 13:24 | 14.86191 | -61.68796 | 31025 ft | 489 kts | 353° |
| 2026-04-26 13:25 | 14.92966 | -61.69508 | 31030 ft | 489 kts | 353° |
| 2026-04-26 13:25 | 14.99746 | -61.70220 | 31030 ft | 489 kts | 353° |
| 2026-04-26 13:26 | 15.06477 | -61.71144 | 31026 ft | 486 kts | 343° |
| 2026-04-26 13:26 | 15.12887 | -61.73349 | 31028 ft | 485 kts | 339° |
| 2026-04-26 13:27 | 15.19397 | -61.75178 | 31031 ft | 488 kts | 351° |
| 2026-04-26 13:27 | 15.26133 | -61.75761 | 31026 ft | 489 kts | 353° |
| 2026-04-26 13:28 | 15.32928 | -61.76351 | 31027 ft | 489 kts | 353° |
| 2026-04-26 13:28 | 15.36321 | -61.76651 | 30812 ft | 489 kts | 353° |
| 2026-04-26 13:28 | 15.39711 | -61.76953 | 30050 ft | 489 kts | 353° |
| 2026-04-26 13:28 | 15.43116 | -61.77257 | 28977 ft | 494 kts | 353° |
| 2026-04-26 13:29 | 15.46527 | -61.77561 | 28293 ft | 490 kts | 353° |
| 2026-04-26 13:29 | 15.48776 | -61.77762 | 27934 ft | 486 kts | 353° |
| 2026-04-26 13:29 | 15.53260 | -61.78163 | 27047 ft | 480 kts | 353° |
| 2026-04-26 13:29 | 15.56585 | -61.78461 | 26373 ft | 481 kts | 353° |
| 2026-04-26 13:30 | 15.59876 | -61.78756 | 25714 ft | 480 kts | 353° |
| 2026-04-26 13:30 | 15.63197 | -61.79053 | 25070 ft | 477 kts | 353° |
| 2026-04-26 13:30 | 15.66496 | -61.79349 | 24409 ft | 475 kts | 353° |
| 2026-04-26 13:30 | 15.69780 | -61.79643 | 23789 ft | 473 kts | 353° |
| 2026-04-26 13:31 | 15.71943 | -61.79837 | 23426 ft | 470 kts | 353° |
| 2026-04-26 13:31 | 15.75181 | -61.80127 | 22819 ft | 465 kts | 353° |
| 2026-04-26 13:31 | 15.78396 | -61.80416 | 22218 ft | 460 kts | 353° |
| 2026-04-26 13:31 | 15.81572 | -61.80701 | 21630 ft | 456 kts | 353° |
| 2026-04-26 13:32 | 15.85739 | -61.81075 | 20878 ft | 450 kts | 353° |
| 2026-04-26 13:32 | 15.87839 | -61.81264 | 20502 ft | 446 kts | 353° |
| 2026-04-26 13:32 | 15.90922 | -61.81540 | 19952 ft | 444 kts | 353° |
| 2026-04-26 13:32 | 15.93986 | -61.81816 | 19464 ft | 440 kts | 353° |
| 2026-04-26 13:33 | 15.97027 | -61.82089 | 18976 ft | 437 kts | 353° |
| 2026-04-26 13:33 | 16.00043 | -61.82360 | 18506 ft | 431 kts | 353° |
| 2026-04-26 13:33 | 16.02975 | -61.82624 | 18033 ft | 415 kts | 353° |
| 2026-04-26 13:33 | 16.05765 | -61.82874 | 17536 ft | 401 kts | 353° |
| 2026-04-26 13:34 | 16.08501 | -61.83121 | 17029 ft | 388 kts | 353° |
| 2026-04-26 13:34 | 16.11153 | -61.83360 | 16530 ft | 377 kts | 353° |
| 2026-04-26 13:34 | 16.13735 | -61.83592 | 16025 ft | 368 kts | 353° |
| 2026-04-26 13:34 | 16.15410 | -61.83743 | 15702 ft | 361 kts | 353° |
| 2026-04-26 13:35 | 16.18707 | -61.84040 | 15050 ft | 350 kts | 353° |
| 2026-04-26 13:35 | 16.21107 | -61.84256 | 14566 ft | 344 kts | 353° |
| 2026-04-26 13:35 | 16.23481 | -61.84470 | 14088 ft | 342 kts | 353° |
| 2026-04-26 13:35 | 16.25846 | -61.84684 | 13586 ft | 339 kts | 354° |
| 2026-04-26 13:36 | 16.28173 | -61.84893 | 13089 ft | 341 kts | 354° |
| 2026-04-26 13:36 | 16.30527 | -61.85106 | 12719 ft | 337 kts | 354° |
| 2026-04-26 13:36 | 16.32857 | -61.85316 | 12330 ft | 335 kts | 354° |
| 2026-04-26 13:36 | 16.35178 | -61.85525 | 11964 ft | 333 kts | 354° |
| 2026-04-26 13:37 | 16.37451 | -61.85730 | 11614 ft | 322 kts | 354° |
| 2026-04-26 13:37 | 16.39638 | -61.85928 | 11275 ft | 309 kts | 354° |
| 2026-04-26 13:37 | 16.41769 | -61.86120 | 10933 ft | 307 kts | 354° |
| 2026-04-26 13:37 | 16.43899 | -61.86313 | 10577 ft | 308 kts | 354° |
| 2026-04-26 13:38 | 16.46031 | -61.86505 | 10222 ft | 306 kts | 354° |
| 2026-04-26 13:38 | 16.48148 | -61.86696 | 9860 ft | 305 kts | 354° |
| 2026-04-26 13:38 | 16.50255 | -61.86887 | 9475 ft | 303 kts | 354° |
| 2026-04-26 13:38 | 16.52345 | -61.87076 | 9089 ft | 301 kts | 354° |
| 2026-04-26 13:39 | 16.54405 | -61.87262 | 8711 ft | 300 kts | 354° |
| 2026-04-26 13:39 | 16.56477 | -61.87449 | 8336 ft | 298 kts | 354° |
| 2026-04-26 13:39 | 16.58541 | -61.87636 | 7962 ft | 297 kts | 354° |
| 2026-04-26 13:39 | 16.60537 | -61.87816 | 7605 ft | 296 kts | 354° |
| 2026-04-26 13:40 | 16.61439 | -61.87898 | 7442 ft | 295 kts | 355° |
| 2026-04-26 13:40 | 16.63483 | -61.88083 | 7084 ft | 294 kts | 355° |
| 2026-04-26 13:40 | 16.65520 | -61.88268 | 6729 ft | 293 kts | 355° |
| 2026-04-26 13:40 | 16.67545 | -61.88451 | 6366 ft | 291 kts | 355° |
| 2026-04-26 13:41 | 16.69562 | -61.88634 | 5990 ft | 290 kts | 355° |
| 2026-04-26 13:41 | 16.71566 | -61.88815 | 5680 ft | 286 kts | 355° |
| 2026-04-26 13:41 | 16.73532 | -61.88994 | 5467 ft | 282 kts | 355° |
| 2026-04-26 13:41 | 16.75496 | -61.89171 | 5242 ft | 283 kts | 356° |
| 2026-04-26 13:42 | 16.77435 | -61.89347 | 5023 ft | 283 kts | 356° |
| 2026-04-26 13:42 | 16.79396 | -61.89525 | 4804 ft | 282 kts | 356° |
| 2026-04-26 13:42 | 16.81346 | -61.89701 | 4545 ft | 281 kts | 356° |
| 2026-04-26 13:42 | 16.83299 | -61.89879 | 4292 ft | 281 kts | 356° |
| 2026-04-26 13:43 | 16.85247 | -61.90055 | 4039 ft | 280 kts | 356° |
| 2026-04-26 13:43 | 16.87187 | -61.90232 | 3783 ft | 280 kts | 356° |
| 2026-04-26 13:43 | 16.89119 | -61.90407 | 3493 ft | 277 kts | 356° |
| 2026-04-26 13:43 | 16.91021 | -61.90580 | 3238 ft | 272 kts | 356° |
| 2026-04-26 13:44 | 16.92900 | -61.90750 | 2958 ft | 268 kts | 356° |
| 2026-04-26 13:44 | 16.94742 | -61.90992 | 2696 ft | 264 kts | 344° |
| 2026-04-26 13:44 | 16.96317 | -61.91815 | 2671 ft | 243 kts | 328° |
| 2026-04-26 13:44 | 16.97692 | -61.92691 | 2624 ft | 226 kts | 329° |
| 2026-04-26 13:45 | 16.98992 | -61.93520 | 2571 ft | 209 kts | 329° |
| 2026-04-26 13:45 | 17.00191 | -61.94286 | 2573 ft | 201 kts | 329° |
| 2026-04-26 13:45 | 17.01397 | -61.95052 | 2536 ft | 204 kts | 330° |
| 2026-04-26 13:45 | 17.02753 | -61.95370 | 2474 ft | 200 kts | 10° |
| 2026-04-26 13:46 | 17.04002 | -61.94833 | 2515 ft | 193 kts | 40° |
| 2026-04-26 13:46 | 17.04957 | -61.93874 | 2519 ft | 190 kts | 57° |
| 2026-04-26 13:46 | 17.05682 | -61.92732 | 2514 ft | 185 kts | 64° |
| 2026-04-26 13:46 | 17.06324 | -61.91624 | 2423 ft | 173 kts | 63° |
| 2026-04-26 13:47 | 17.06944 | -61.90570 | 2237 ft | 168 kts | 63° |
| 2026-04-26 13:47 | 17.07549 | -61.89549 | 2045 ft | 167 kts | 63° |
| 2026-04-26 13:47 | 17.08156 | -61.88528 | 1856 ft | 164 kts | 63° |
| 2026-04-26 13:47 | 17.08760 | -61.87517 | 1648 ft | 163 kts | 63° |
| 2026-04-26 13:48 | 17.09359 | -61.86509 | 1447 ft | 163 kts | 62° |
| 2026-04-26 13:48 | 17.09949 | -61.85520 | 1231 ft | 158 kts | 63° |
| 2026-04-26 13:48 | 17.10530 | -61.84544 | 1029 ft | 157 kts | 62° |
| 2026-04-26 13:48 | 17.11104 | -61.83584 | 822 ft | 154 kts | 61° |
| 2026-04-26 13:49 | 17.11669 | -61.82636 | 658 ft | 155 kts | 62° |
| 2026-04-26 13:49 | 17.12247 | -61.81676 | 459 ft | 156 kts | 62° |
| 2026-04-26 13:49 | 17.12813 | -61.80733 | 214 ft | 149 kts | 61° |
| 2026-04-26 13:49 | 17.13325 | -61.79851 | 62 ft | 127 kts | 57° |
| 2026-04-26 13:50 | 17.13659 | -61.79288 | 67 ft | 64 kts | 58° |
| 2026-04-26 13:50 | 17.13840 | -61.78980 | 67 ft | 38 kts | 59° |
| 2026-04-26 13:50 | 17.13944 | -61.78804 | 66 ft | 28 kts | 59° |
| 2026-04-26 13:50 | 17.14008 | -61.78694 | 69 ft | 16 kts | 58° |
| 2026-04-26 13:51 | 17.14087 | -61.78664 | 70 ft | 10 kts | 316° |
| 2026-04-26 13:51 | 17.14104 | -61.78744 | 69 ft | 14 kts | 274° |
| 2026-04-26 13:51 | 17.14104 | -61.78856 | 66 ft | 16 kts | 252° |
| 2026-04-26 13:51 | 17.14080 | -61.78923 | 66 ft | 11 kts | 271° |
| 2026-04-26 13:52 | 17.14108 | -61.78959 | 62 ft | 7 kts | 328° |
| 2026-04-26 13:52 | 17.14128 | -61.78972 | 63 ft | 2 kts | 328° |
| 2026-04-26 13:52 | 17.14134 | -61.78976 | 66 ft | 0 kts | 328° |